Back to Top

Language: 

My Weather Underground Personal Weather Station Historical Data with Graphs...

Delerius Weather Station Historical Data
Daily Summary for April 1, 2017 Units:  Metric    English   Both
« Previous Day
Next Day »
Daily Weekly Monthly Yearly Custom
  High: Low: Average:
Temperature: 15.3 °C 7.5 °C 10.5 °C
Dew Point: 9.4 °C 6.1 °C 7.5 °C
Humidity: 94 % 66 % 82 %
Wind Speed: 20.9 km/h 0 km/h 8.4 km/h
Wind Gust: 35.4 km/h - -
Wind:- - SW
Pressure: 1013.8 hPa 1004.6 hPa -
Precipitation: 0.25 mm    
Historical Graphs
 
 
Tabular Data for April 1, 2017
Time Temperature Dew Point Pressure Wind Wind Speed Wind Gust Humidity Rainfall Rate (Hourly) solar Conditions
00:04 11.3 °C 8.2 °C 1006 hPa South 6.4 km/h 22.5 km/h 81 % 0 mm 0 W/m2
00:09 11.3 °C 8.2 °C 1005.6 hPa South 9.7 km/h 29 km/h 81 % 0 mm 0 W/m2
00:14 11.3 °C 8.2 °C 1005.6 hPa South 11.3 km/h 29 km/h 81 % 0 mm 0 W/m2
00:19 11.2 °C 8.1 °C 1005.6 hPa South 9.7 km/h 25.7 km/h 81 % 0 mm 0 W/m2
00:24 11.2 °C 8.1 °C 1005.6 hPa SSW 12.9 km/h 24.1 km/h 81 % 0 mm 0 W/m2
00:29 11.1 °C 7.9 °C 1005.6 hPa SSW 12.9 km/h 24.1 km/h 81 % 0 mm 0 W/m2
00:34 11.1 °C 7.9 °C 1005.6 hPa SSW 12.9 km/h 24.1 km/h 81 % 0 mm 0 W/m2
00:39 11 °C 7.9 °C 1005.6 hPa SSW 12.9 km/h 24.1 km/h 81 % 0 mm 0 W/m2
00:44 10.9 °C 7.8 °C 1005.6 hPa SSW 12.9 km/h 22.5 km/h 81 % 0 mm 0 W/m2
00:49 10.9 °C 7.8 °C 1005.6 hPa SSW 11.3 km/h 19.3 km/h 81 % 0 mm 0 W/m2
00:54 10.8 °C 7.7 °C 1005.3 hPa SSW 9.7 km/h 19.3 km/h 81 % 0 mm 0 W/m2
00:59 10.8 °C 7.7 °C 1005.3 hPa SSW 9.7 km/h 17.7 km/h 81 % 0 mm 0 W/m2
01:04 10.7 °C 7.8 °C 1005.3 hPa SSW 9.7 km/h 16.1 km/h 82 % 0 mm 0 W/m2
01:09 10.7 °C 7.8 °C 1005.6 hPa SSW 9.7 km/h 16.1 km/h 82 % 0 mm 0 W/m2
01:14 10.6 °C 7.7 °C 1005.3 hPa SSW 8 km/h 16.1 km/h 82 % 0 mm 0 W/m2
01:19 10.6 °C 7.7 °C 1005.3 hPa SSW 6.4 km/h 14.5 km/h 82 % 0 mm 0 W/m2
01:24 10.5 °C 7.6 °C 1005.3 hPa SSW 6.4 km/h 12.9 km/h 82 % 0 mm 0 W/m2
01:29 10.4 °C 7.4 °C 1005.6 hPa SSW 8 km/h 14.5 km/h 82 % 0 mm 0 W/m2
01:34 10.3 °C 7.3 °C 1005.3 hPa SSW 6.4 km/h 14.5 km/h 82 % 0 mm 0 W/m2
01:39 10.3 °C 7.6 °C 1005.3 hPa South 6.4 km/h 12.9 km/h 83 % 0 mm 0 W/m2
01:45 10.2 °C 7.4 °C 1005.3 hPa South 4.8 km/h 12.9 km/h 83 % 0 mm 0 W/m2
01:50 10.1 °C 7.3 °C 1005.3 hPa South 4.8 km/h 11.3 km/h 83 % 0 mm 0 W/m2
01:55 10 °C 7.2 °C 1005.3 hPa South 6.4 km/h 11.3 km/h 83 % 0 mm 0 W/m2
02:00 9.9 °C 7.3 °C 1005.3 hPa South 6.4 km/h 12.9 km/h 84 % 0 mm 0 W/m2
02:05 9.9 °C 7.3 °C 1005.3 hPa South 8 km/h 12.9 km/h 84 % 0 mm 0 W/m2
02:10 9.8 °C 7.2 °C 1005.3 hPa South 8 km/h 12.9 km/h 84 % 0 mm 0 W/m2
02:15 9.8 °C 7.2 °C 1005.3 hPa South 6.4 km/h 12.9 km/h 84 % 0 mm 0 W/m2
02:20 9.7 °C 7.1 °C 1005.3 hPa South 6.4 km/h 12.9 km/h 84 % 0 mm 0 W/m2
02:25 9.7 °C 7.3 °C 1005.3 hPa South 6.4 km/h 12.9 km/h 85 % 0 mm 0 W/m2
02:30 9.6 °C 7.2 °C 1005.3 hPa South 6.4 km/h 12.9 km/h 85 % 0 mm 0 W/m2
02:35 9.5 °C 7.1 °C 1005.3 hPa South 6.4 km/h 12.9 km/h 85 % 0 mm 0 W/m2
02:40 9.4 °C 7 °C 1005 hPa South 8 km/h 17.7 km/h 85 % 0 mm 0 W/m2
02:45 9.4 °C 7 °C 1005 hPa South 8 km/h 17.7 km/h 85 % 0 mm 0 W/m2
02:50 9.4 °C 7 °C 1005 hPa South 6.4 km/h 16.1 km/h 85 % 0 mm 0 W/m2
02:55 9.3 °C 6.9 °C 1005 hPa South 6.4 km/h 16.1 km/h 85 % 0 mm 0 W/m2
03:00 9.3 °C 7.1 °C 1005 hPa South 6.4 km/h 16.1 km/h 86 % 0 mm 0 W/m2
03:05 9.3 °C 7.1 °C 1005 hPa South 8 km/h 14.5 km/h 86 % 0 mm 0 W/m2
03:10 9.2 °C 7 °C 1005 hPa South 6.4 km/h 14.5 km/h 86 % 0 mm 0 W/m2
03:15 9.2 °C 7 °C 1005 hPa South 4.8 km/h 12.9 km/h 86 % 0 mm 0 W/m2
03:20 9.2 °C 7 °C 1005 hPa South 4.8 km/h 12.9 km/h 86 % 0 mm 0 W/m2
03:25 9.1 °C 6.9 °C 1005 hPa South 4.8 km/h 11.3 km/h 86 % 0 mm 0 W/m2
03:30 9.1 °C 6.9 °C 1005 hPa South 4.8 km/h 11.3 km/h 86 % 0 mm 0 W/m2
03:35 9.1 °C 6.9 °C 1005 hPa South 6.4 km/h 12.9 km/h 86 % 0 mm 0 W/m2
03:40 9.1 °C 6.9 °C 1005 hPa SSE 4.8 km/h 12.9 km/h 86 % 0 mm 0 W/m2
03:45 9 °C 6.8 °C 1005 hPa SSE 3.2 km/h 8 km/h 86 % 0 mm 0 W/m2
03:50 8.9 °C 6.7 °C 1005 hPa South 3.2 km/h 8 km/h 86 % 0 mm 0 W/m2
03:55 8.9 °C 6.8 °C 1005 hPa South 4.8 km/h 11.3 km/h 87 % 0 mm 0 W/m2
04:00 8.9 °C 6.8 °C 1005 hPa South 6.4 km/h 16.1 km/h 87 % 0 mm 0 W/m2
04:05 8.9 °C 6.8 °C 1005 hPa South 4.8 km/h 16.1 km/h 87 % 0 mm 0 W/m2
04:10 8.8 °C 6.8 °C 1004.6 hPa SSW 3.2 km/h 9.7 km/h 87 % 0 mm 0 W/m2
04:15 8.8 °C 6.8 °C 1004.6 hPa SSW 3.2 km/h 16.1 km/h 87 % 0 mm 0 W/m2
04:20 8.8 °C 6.8 °C 1004.6 hPa SW 3.2 km/h 16.1 km/h 87 % 0 mm 0 W/m2
04:25 8.8 °C 6.8 °C 1004.6 hPa SW 1.6 km/h 9.7 km/h 87 % 0 mm 0 W/m2
04:26 8.7 °C 6.7 °C 1004.6 hPa SW 1.6 km/h 6.4 km/h 87 % 0 mm 0 W/m2
04:31 8.7 °C 6.7 °C 1004.6 hPa SW 1.6 km/h 9.7 km/h 87 % 0 mm 0 W/m2
04:36 8.6 °C 6.6 °C 1004.6 hPa SSW 1.6 km/h 11.3 km/h 87 % 0 mm 0 W/m2
04:41 8.4 °C 6.3 °C 1004.6 hPa South 1.6 km/h 11.3 km/h 87 % 0 mm 0 W/m2
04:43 8.4 °C 6.3 °C 1004.6 hPa Calm   6.4 km/h 87 % 0 mm 0 W/m2
04:48 8.3 °C 6.3 °C 1004.6 hPa Calm   3.2 km/h 87 % 0 mm 0 W/m2
04:53 8.2 °C 6.3 °C 1004.6 hPa Calm   3.2 km/h 88 % 0 mm 0 W/m2
04:58 8.2 °C 6.3 °C 1004.6 hPa Calm   6.4 km/h 88 % 0 mm 0 W/m2
05:03 8.1 °C 6.2 °C 1004.6 hPa Calm   6.4 km/h 88 % 0 mm 0 W/m2
05:08 8 °C 6.1 °C 1004.6 hPa Calm   1.6 km/h 88 % 0 mm 0 W/m2
05:13 7.9 °C 6.2 °C 1004.6 hPa Calm   3.2 km/h 89 % 0 mm 0 W/m2
05:18 7.8 °C 6.1 °C 1004.6 hPa Calm   6.4 km/h 89 % 0 mm 0 W/m2
05:23 7.8 °C 6.1 °C 1004.6 hPa SSE 1.6 km/h 8 km/h 89 % 0 mm 0 W/m2
05:28 7.8 °C 6.3 °C 1004.6 hPa Calm   8 km/h 90 % 0 mm 0 W/m2
05:33 7.8 °C 6.3 °C 1004.6 hPa SSE 1.6 km/h 8 km/h 90 % 0 mm 0 W/m2
05:38 7.8 °C 6.3 °C 1004.6 hPa SSE 3.2 km/h 8 km/h 90 % 0 mm 0 W/m2
05:43 7.8 °C 6.3 °C 1004.6 hPa SSE 1.6 km/h 8 km/h 90 % 0 mm 0 W/m2
05:48 7.8 °C 6.3 °C 1004.6 hPa SSE 1.6 km/h 8 km/h 90 % 0 mm 0 W/m2
05:53 7.7 °C 6.2 °C 1004.6 hPa Calm   1.6 km/h 90 % 0 mm 0 W/m2
05:58 7.7 °C 6.2 °C 1004.6 hPa SE 1.6 km/h 9.7 km/h 90 % 0 mm 0 W/m2
06:03 7.7 °C 6.2 °C 1004.6 hPa SE 4.8 km/h 9.7 km/h 90 % 0 mm 0 W/m2
06:08 7.7 °C 6.3 °C 1004.6 hPa SE 6.4 km/h 9.7 km/h 91 % 0 mm 0 W/m2
06:13 7.7 °C 6.3 °C 1004.6 hPa SE 6.4 km/h 9.7 km/h 91 % 0 mm 0 W/m2
06:18 7.7 °C 6.2 °C 1004.6 hPa SE 4.8 km/h 9.7 km/h 90 % 0 mm 0 W/m2
06:24 7.7 °C 6.2 °C 1004.6 hPa SE 3.2 km/h 9.7 km/h 90 % 0 mm 0 W/m2
06:29 7.6 °C 6.1 °C 1004.6 hPa SE 3.2 km/h 9.7 km/h 90 % 0 mm 0 W/m2
06:34 7.6 °C 6.1 °C 1004.6 hPa SE 4.8 km/h 9.7 km/h 90 % 0 mm 0 W/m2
06:39 7.5 °C 6.1 °C 1004.6 hPa SE 6.4 km/h 9.7 km/h 91 % 0 mm 0 W/m2
06:44 7.5 °C 6.1 °C 1004.6 hPa SE 6.4 km/h 9.7 km/h 91 % 0 mm 5 W/m2
06:49 7.5 °C 6.1 °C 1004.6 hPa SE 4.8 km/h 9.7 km/h 91 % 0 mm 0 W/m2
06:54 7.5 °C 6.1 °C 1004.6 hPa ESE 3.2 km/h 8 km/h 91 % 0 mm 0 W/m2
06:59 7.5 °C 6.1 °C 1004.6 hPa ESE 4.8 km/h 8 km/h 91 % 0 mm 7 W/m2
07:04 7.5 °C 6.1 °C 1004.6 hPa ESE 3.2 km/h 8 km/h 91 % 0 mm 11 W/m2
07:09 7.5 °C 6.1 °C 1005 hPa ESE 1.6 km/h 6.4 km/h 91 % 0 mm 18 W/m2
07:14 7.5 °C 6.1 °C 1005 hPa ESE 3.2 km/h 9.7 km/h 91 % 0 mm 19 W/m2
07:19 7.6 °C 6.4 °C 1005 hPa ESE 3.2 km/h 9.7 km/h 92 % 0 mm 23 W/m2
07:24 7.6 °C 6.4 °C 1004.6 hPa ESE 3.2 km/h 8 km/h 92 % 0 mm 18 W/m2
07:29 7.6 °C 6.4 °C 1004.6 hPa ESE 1.6 km/h 9.7 km/h 92 % 0 mm 16 W/m2
07:34 7.6 °C 6.2 °C 1005 hPa SE 1.6 km/h 9.7 km/h 91 % 0 mm 18 W/m2
07:39 7.7 °C 6.3 °C 1005 hPa SE 1.6 km/h 8 km/h 91 % 0 mm 33 W/m2
07:44 7.7 °C 6.5 °C 1004.6 hPa SE 1.6 km/h 8 km/h 92 % 0 mm 30 W/m2
07:49 7.7 °C 6.5 °C 1004.6 hPa Calm   1.6 km/h 92 % 0 mm 67 W/m2
07:54 7.8 °C 6.6 °C 1004.6 hPa Calm   3.2 km/h 92 % 0 mm 86 W/m2
07:55 7.8 °C 6.6 °C 1004.6 hPa Calm   3.2 km/h 92 % 0.25 mm 76 W/m2
08:00 7.9 °C 6.7 °C 1005 hPa Calm   3.2 km/h 92 % 0.25 mm 76 W/m2
08:05 8.1 °C 6.9 °C 1005 hPa Calm   1.6 km/h 92 % 0.25 mm 33 W/m2
08:10 8.1 °C 6.9 °C 1005 hPa Calm   1.6 km/h 92 % 0.25 mm 32 W/m2
08:16 8.1 °C 6.9 °C 1005 hPa Calm   6.4 km/h 92 % 0.25 mm 47 W/m2
08:21 8.1 °C 6.9 °C 1005 hPa Calm   6.4 km/h 92 % 0.25 mm 46 W/m2
08:26 8.1 °C 6.9 °C 1005 hPa Calm   3.2 km/h 92 % 0.25 mm 56 W/m2
08:31 8.2 °C 7.1 °C 1005 hPa SE 1.6 km/h 6.4 km/h 93 % 0.25 mm 83 W/m2
08:36 8.2 °C 7.1 °C 1005 hPa ESE 1.6 km/h 6.4 km/h 93 % 0.25 mm 39 W/m2
08:41 8.2 °C 7 °C 1005 hPa East 1.6 km/h 8 km/h 92 % 0.25 mm 56 W/m2
08:46 8.3 °C 7.2 °C 1005 hPa East 3.2 km/h 8 km/h 93 % 0.25 mm 97 W/m2
08:51 8.3 °C 7.2 °C 1005 hPa ESE 3.2 km/h 9.7 km/h 93 % 0.25 mm 134 W/m2
08:56 8.4 °C 7.3 °C 1005 hPa SE 3.2 km/h 9.7 km/h 93 % 0 mm 116 W/m2
09:01 8.5 °C 7.4 °C 1005 hPa SE 3.2 km/h 8 km/h 93 % 0 mm 93 W/m2
09:06 8.6 °C 7.6 °C 1005.3 hPa ESE 3.2 km/h 8 km/h 93 % 0 mm 67 W/m2
09:11 8.6 °C 7.6 °C 1005 hPa ESE 3.2 km/h 8 km/h 93 % 0 mm 95 W/m2
09:16 8.6 °C 7.6 °C 1005.3 hPa ESE 3.2 km/h 8 km/h 93 % 0 mm 72 W/m2
09:21 8.6 °C 7.6 °C 1005.3 hPa ESE 4.8 km/h 9.7 km/h 93 % 0 mm 74 W/m2
09:26 8.6 °C 7.6 °C 1005.3 hPa ESE 4.8 km/h 9.7 km/h 93 % 0 mm 84 W/m2
09:28 8.6 °C 7.6 °C 1005.3 hPa ESE 3.2 km/h 9.7 km/h 93 % 0 mm 65 W/m2
09:33 8.6 °C 7.6 °C 1005.3 hPa SE 3.2 km/h 8 km/h 93 % 0 mm 44 W/m2
09:38 8.5 °C 7.4 °C 1005.3 hPa SE 3.2 km/h 8 km/h 93 % 0 mm 51 W/m2
09:43 8.6 °C 7.6 °C 1005.3 hPa SE 3.2 km/h 9.7 km/h 93 % 0 mm 69 W/m2
09:48 8.6 °C 7.6 °C 1005.3 hPa SE 3.2 km/h 9.7 km/h 93 % 0 mm 146 W/m2
09:53 8.7 °C 7.8 °C 1005.3 hPa SSE 1.6 km/h 8 km/h 94 % 0 mm 172 W/m2
09:58 8.8 °C 7.9 °C 1005.3 hPa SSE 1.6 km/h 6.4 km/h 94 % 0 mm 181 W/m2
10:03 8.9 °C 8 °C 1005.3 hPa SSE 1.6 km/h 6.4 km/h 94 % 0 mm 125 W/m2
10:08 9 °C 8.1 °C 1005.3 hPa SSE 1.6 km/h 8 km/h 94 % 0 mm 86 W/m2
10:13 9 °C 7.9 °C 1005.3 hPa South 1.6 km/h 8 km/h 93 % 0 mm 69 W/m2
10:18 9 °C 7.9 °C 1005.3 hPa SW 3.2 km/h 12.9 km/h 93 % 0 mm 70 W/m2
10:23 9.1 °C 8 °C 1005.3 hPa SW 4.8 km/h 12.9 km/h 93 % 0 mm 111 W/m2
10:28 9.1 °C 8 °C 1005.6 hPa SSW 6.4 km/h 16.1 km/h 93 % 0 mm 97 W/m2
10:33 9.1 °C 7.9 °C 1005.6 hPa SSW 9.7 km/h 16.1 km/h 92 % 0 mm 60 W/m2
10:38 9.1 °C 7.9 °C 1005.6 hPa SW 9.7 km/h 16.1 km/h 92 % 0 mm 67 W/m2
10:43 9.1 °C 7.9 °C 1005.6 hPa SW 8 km/h 16.1 km/h 92 % 0 mm 120 W/m2
10:48 9.1 °C 7.9 °C 1005.6 hPa SW 8 km/h 16.1 km/h 92 % 0 mm 142 W/m2
10:53 9.2 °C 7.9 °C 1005.6 hPa SSW 8 km/h 16.1 km/h 92 % 0 mm 171 W/m2
10:58 9.3 °C 8.2 °C 1005.6 hPa SW 4.8 km/h 11.3 km/h 93 % 0 mm 171 W/m2
11:03 9.3 °C 8.1 °C 1005.6 hPa SW 4.8 km/h 9.7 km/h 92 % 0 mm 190 W/m2
11:08 9.4 °C 8.2 °C 1005.6 hPa SW 4.8 km/h 9.7 km/h 92 % 0 mm 220 W/m2
11:13 9.5 °C 8.3 °C 1005.6 hPa SW 4.8 km/h 9.7 km/h 92 % 0 mm 244 W/m2
11:18 9.7 °C 8.4 °C 1005.6 hPa SW 1.6 km/h 8 km/h 92 % 0 mm 315 W/m2
11:23 9.8 °C 8.4 °C 1005.6 hPa SW 3.2 km/h 9.7 km/h 91 % 0 mm 322 W/m2
11:28 10 °C 8.6 °C 1005.6 hPa SW 4.8 km/h 11.3 km/h 91 % 0 mm 438 W/m2
11:33 10.3 °C 8.9 °C 1005.6 hPa SSW 4.8 km/h 11.3 km/h 91 % 0 mm 473 W/m2
11:38 10.7 °C 9.3 °C 1005.6 hPa SSW 3.2 km/h 9.7 km/h 91 % 0 mm 657 W/m2
11:43 10.8 °C 9.1 °C 1005.6 hPa SW 3.2 km/h 9.7 km/h 89 % 0 mm 686 W/m2
11:48 11.2 °C 9.4 °C 1005.6 hPa SSW 3.2 km/h 8 km/h 89 % 0 mm 703 W/m2
11:53 11.5 °C 9.4 °C 1006 hPa South 1.6 km/h 8 km/h 87 % 0 mm 327 W/m2
11:58 11.7 °C 9.4 °C 1005.6 hPa SSW 1.6 km/h 9.7 km/h 86 % 0 mm 244 W/m2
12:04 11.8 °C 9.2 °C 1006 hPa SW 1.6 km/h 9.7 km/h 84 % 0 mm 313 W/m2
12:08 11.8 °C 9.2 °C 1006 hPa SW 3.2 km/h 9.7 km/h 84 % 0 mm 406 W/m2
12:14 11.9 °C 9.4 °C 1006 hPa SW 1.6 km/h 8 km/h 85 % 0 mm 299 W/m2
12:19 12.2 °C 9.4 °C 1006 hPa WNW 4.8 km/h 12.9 km/h 83 % 0 mm 840 W/m2
12:24 12.6 °C 9.4 °C 1006 hPa WNW 6.4 km/h 12.9 km/h 81 % 0 mm 338 W/m2
12:29 12.9 °C 9.3 °C 1005.6 hPa WNW 6.4 km/h 14.5 km/h 79 % 0 mm 360 W/m2
12:34 13 °C 9.1 °C 1006 hPa NW 8 km/h 20.9 km/h 77 % 0 mm 227 W/m2
12:39 13.1 °C 8.4 °C 1006 hPa NW 11.3 km/h 20.9 km/h 73 % 0 mm 318 W/m2
12:44 13.3 °C 8.8 °C 1006 hPa WNW 11.3 km/h 20.9 km/h 74 % 0 mm 717 W/m2
12:49 13.6 °C 8.8 °C 1005.6 hPa WNW 11.3 km/h 24.1 km/h 73 % 0 mm 923 W/m2
12:54 13.7 °C 8.6 °C 1006 hPa West 14.5 km/h 25.7 km/h 71 % 0 mm 183 W/m2
12:59 13.4 °C 8.4 °C 1006 hPa West 16.1 km/h 25.7 km/h 72 % 0 mm 229 W/m2
13:04 13.3 °C 8.8 °C 1006 hPa West 16.1 km/h 25.7 km/h 74 % 0 mm 243 W/m2
13:09 13.4 °C 8.8 °C 1006 hPa WNW 14.5 km/h 24.1 km/h 74 % 0 mm 882 W/m2
13:14 13.8 °C 8.8 °C 1006 hPa WNW 14.5 km/h 25.7 km/h 72 % 0 mm 907 W/m2
13:19 14.1 °C 9.3 °C 1006 hPa West 16.1 km/h 25.7 km/h 73 % 0 mm 461 W/m2
13:24 14 °C 8.8 °C 1006.3 hPa West 16.1 km/h 30.6 km/h 71 % 0 mm 336 W/m2
13:29 13.8 °C 8.6 °C 1006.3 hPa West 17.7 km/h 30.6 km/h 71 % 0 mm 316 W/m2
13:35 13.7 °C 8.9 °C 1006.3 hPa West 14.5 km/h 25.7 km/h 73 % 0 mm 364 W/m2
13:39 13.9 °C 9.1 °C 1006.3 hPa West 12.9 km/h 24.1 km/h 73 % 0 mm 895 W/m2
13:45 14.2 °C 9 °C 1006.3 hPa West 16.1 km/h 30.6 km/h 71 % 0 mm 912 W/m2
13:50 14.5 °C 8.7 °C 1006.3 hPa West 19.3 km/h 30.6 km/h 68 % 0 mm 348 W/m2
13:55 14.5 °C 8.9 °C 1006.3 hPa WNW 17.7 km/h 30.6 km/h 69 % 0 mm 432 W/m2
14:00 14.6 °C 8.8 °C 1006.7 hPa WNW 16.1 km/h 29 km/h 68 % 0 mm 432 W/m2
14:05 14.6 °C 8.6 °C 1006.7 hPa West 16.1 km/h 33.8 km/h 67 % 0 mm 956 W/m2
14:10 14.7 °C 8.6 °C 1006.7 hPa West 16.1 km/h 33.8 km/h 67 % 0 mm 612 W/m2
14:15 14.8 °C 8.7 °C 1006.7 hPa West 16.1 km/h 30.6 km/h 67 % 0 mm 795 W/m2
14:20 14.9 °C 8.8 °C 1006.7 hPa West 17.7 km/h 32.2 km/h 67 % 0 mm 306 W/m2
14:25 14.9 °C 8.8 °C 1006.7 hPa WNW 17.7 km/h 32.2 km/h 67 % 0 mm 348 W/m2
14:30 14.7 °C 8.4 °C 1006.7 hPa West 16.1 km/h 25.7 km/h 66 % 0 mm 292 W/m2
14:37 14.9 °C 8.8 °C 1006.7 hPa West 16.1 km/h 19.3 km/h 67 % 0 mm 803 W/m2
14:42 15.1 °C 9.2 °C 1006.7 hPa WSW 12.9 km/h 22.5 km/h 68 % 0 mm 821 W/m2
14:47 15.1 °C 8.8 °C 1006.7 hPa WSW 12.9 km/h 22.5 km/h 66 % 0 mm 707 W/m2
14:52 14.9 °C 8.8 °C 1006.7 hPa West 16.1 km/h 25.7 km/h 67 % 0 mm 710 W/m2
14:57 14.8 °C 8.9 °C 1006.7 hPa WSW 16.1 km/h 25.7 km/h 68 % 0 mm 264 W/m2
15:02 14.8 °C 9.2 °C 1006.7 hPa West 14.5 km/h 22.5 km/h 69 % 0 mm 686 W/m2
15:07 15.1 °C 9.2 °C 1007 hPa West 14.5 km/h 25.7 km/h 68 % 0 mm 698 W/m2
15:12 15.3 °C 9.4 °C 1007 hPa West 16.1 km/h 29 km/h 68 % 0 mm 766 W/m2
15:17 15.3 °C 9 °C 1007 hPa West 17.7 km/h 32.2 km/h 66 % 0 mm 185 W/m2
15:23 15.1 °C 9 °C 1007 hPa West 17.7 km/h 35.4 km/h 67 % 0 mm 670 W/m2
15:28 15.1 °C 9 °C 1007 hPa West 16.1 km/h 35.4 km/h 67 % 0 mm 686 W/m2
15:33 14.8 °C 8.7 °C 1007 hPa West 17.7 km/h 33.8 km/h 67 % 0 mm 258 W/m2
15:38 14.5 °C 8.7 °C 1007.3 hPa WNW 20.9 km/h 33.8 km/h 68 % 0 mm 439 W/m2
15:43 14.3 °C 8.7 °C 1007.3 hPa WNW 19.3 km/h 33.8 km/h 69 % 0 mm 269 W/m2
15:48 14.1 °C 8.7 °C 1007.3 hPa WNW 17.7 km/h 30.6 km/h 70 % 0 mm 234 W/m2
15:53 13.8 °C 8.8 °C 1007.3 hPa WNW 16.1 km/h 29 km/h 72 % 0 mm 199 W/m2
15:58 13.6 °C 8.4 °C 1007.3 hPa WNW 16.1 km/h 30.6 km/h 71 % 0 mm 195 W/m2
16:03 13.4 °C 8.2 °C 1007.3 hPa West 17.7 km/h 30.6 km/h 71 % 0 mm 186 W/m2
16:08 13.2 °C 8.3 °C 1007.3 hPa West 16.1 km/h 29 km/h 72 % 0 mm 158 W/m2
16:13 13.2 °C 8.4 °C 1007.7 hPa West 12.9 km/h 22.5 km/h 73 % 0 mm 160 W/m2
16:18 13 °C 8.3 °C 1007.7 hPa West 14.5 km/h 32.2 km/h 73 % 0 mm 243 W/m2
16:23 13.1 °C 8.6 °C 1007.7 hPa West 16.1 km/h 32.2 km/h 74 % 0 mm 311 W/m2
16:28 13.4 °C 8.7 °C 1007.7 hPa WNW 14.5 km/h 25.7 km/h 73 % 0 mm 555 W/m2
16:33 13.8 °C 8.8 °C 1007.7 hPa WNW 16.1 km/h 25.7 km/h 72 % 0 mm 519 W/m2
16:38 14.1 °C 8.9 °C 1007.7 hPa WNW 14.5 km/h 25.7 km/h 71 % 0 mm 513 W/m2
16:43 14.3 °C 8.9 °C 1007.7 hPa WNW 12.9 km/h 25.7 km/h 70 % 0 mm 380 W/m2
16:48 14.2 °C 8.4 °C 1007.7 hPa WNW 14.5 km/h 29 km/h 68 % 0 mm 427 W/m2
16:53 14.2 °C 8.6 °C 1008 hPa WNW 14.5 km/h 29 km/h 69 % 0 mm 450 W/m2
16:58 14.2 °C 8.6 °C 1008 hPa WNW 14.5 km/h 25.7 km/h 69 % 0 mm 411 W/m2
17:03 14.2 °C 8.6 °C 1008 hPa WNW 12.9 km/h 24.1 km/h 69 % 0 mm 171 W/m2
17:08 14.2 °C 8.6 °C 1008 hPa WNW 8 km/h 16.1 km/h 69 % 0 mm 251 W/m2
17:13 14.3 °C 8.7 °C 1008 hPa WNW 8 km/h 19.3 km/h 69 % 0 mm 352 W/m2
17:18 14.2 °C 7.9 °C 1008 hPa WNW 16.1 km/h 32.2 km/h 66 % 0 mm 227 W/m2
17:23 14.1 °C 8.1 °C 1008 hPa WNW 19.3 km/h 32.2 km/h 67 % 0 mm 230 W/m2
17:28 13.9 °C 8.1 °C 1008.4 hPa WNW 17.7 km/h 30.6 km/h 68 % 0 mm 381 W/m2
17:33 13.8 °C 8 °C 1008.4 hPa WNW 19.3 km/h 35.4 km/h 68 % 0 mm 123 W/m2
17:38 13.4 °C 7.6 °C 1008.7 hPa WNW 19.3 km/h 35.4 km/h 68 % 0 mm 120 W/m2
17:43 13.2 °C 7.8 °C 1008.7 hPa WNW 16.1 km/h 25.7 km/h 70 % 0 mm 125 W/m2
17:48 13 °C 7.9 °C 1008.7 hPa WNW 12.9 km/h 22.5 km/h 71 % 0 mm 100 W/m2
17:53 12.8 °C 7.4 °C 1008.7 hPa WNW 14.5 km/h 22.5 km/h 70 % 0 mm 76 W/m2
17:58 12.7 °C 7.4 °C 1009 hPa WNW 14.5 km/h 24.1 km/h 70 % 0 mm 67 W/m2
18:03 12.6 °C 7.5 °C 1009 hPa WNW 12.9 km/h 24.1 km/h 71 % 0 mm 113 W/m2
18:08 12.6 °C 7.5 °C 1009 hPa WNW 14.5 km/h 25.7 km/h 71 % 0 mm 120 W/m2
18:13 12.7 °C 7.6 °C 1009 hPa WNW 14.5 km/h 25.7 km/h 71 % 0 mm 120 W/m2
18:18 12.8 °C 7.7 °C 1009.4 hPa WNW 12.9 km/h 25.7 km/h 71 % 0 mm 86 W/m2
18:23 12.8 °C 7.9 °C 1009.4 hPa WNW 11.3 km/h 24.1 km/h 72 % 0 mm 74 W/m2
18:29 12.8 °C 7.9 °C 1009.4 hPa WNW 8 km/h 19.3 km/h 72 % 0 mm 63 W/m2
18:34 12.8 °C 7.9 °C 1009.4 hPa WNW 6.4 km/h 14.5 km/h 72 % 0 mm 65 W/m2
18:39 12.7 °C 7.8 °C 1009.4 hPa WNW 8 km/h 17.7 km/h 72 % 0 mm 60 W/m2
18:44 12.7 °C 7.4 °C 1009.4 hPa WNW 9.7 km/h 20.9 km/h 70 % 0 mm 62 W/m2
18:49 12.7 °C 7.4 °C 1009.4 hPa WNW 11.3 km/h 20.9 km/h 70 % 0 mm 100 W/m2
18:54 12.7 °C 7.6 °C 1009.7 hPa WNW 11.3 km/h 19.3 km/h 71 % 0 mm 91 W/m2
18:59 12.7 °C 7.6 °C 1009.7 hPa WNW 9.7 km/h 19.3 km/h 71 % 0 mm 81 W/m2
19:04 12.7 °C 7.6 °C 1009.7 hPa WNW 6.4 km/h 14.5 km/h 71 % 0 mm 69 W/m2
19:09 12.8 °C 7.7 °C 1009.7 hPa West 6.4 km/h 14.5 km/h 71 % 0 mm 46 W/m2
19:14 12.7 °C 7.6 °C 1010 hPa West 6.4 km/h 14.5 km/h 71 % 0 mm 33 W/m2
19:19 12.7 °C 7.6 °C 1010 hPa WNW 8 km/h 17.7 km/h 71 % 0 mm 23 W/m2
19:24 12.6 °C 7.7 °C 1010 hPa WNW 9.7 km/h 17.7 km/h 72 % 0 mm 16 W/m2
19:29 12.4 °C 7.5 °C 1010 hPa WNW 9.7 km/h 16.1 km/h 72 % 0 mm 12 W/m2
19:34 12.2 °C 7.3 °C 1010 hPa West 8 km/h 16.1 km/h 72 % 0 mm 9 W/m2
19:39 11.9 °C 7.2 °C 1010 hPa WNW 8 km/h 14.5 km/h 73 % 0 mm 7 W/m2
19:44 11.7 °C 7.2 °C 1010.4 hPa WNW 8 km/h 16.1 km/h 74 % 0 mm 0 W/m2
19:49 11.6 °C 7.3 °C 1010.4 hPa WNW 9.7 km/h 17.7 km/h 75 % 0 mm 0 W/m2
19:54 11.3 °C 7.2 °C 1010.4 hPa WNW 9.7 km/h 17.7 km/h 76 % 0 mm 0 W/m2
19:59 11.2 °C 7.3 °C 1010.4 hPa WNW 8 km/h 16.1 km/h 77 % 0 mm 0 W/m2
20:04 11.1 °C 7.2 °C 1010.7 hPa WNW 11.3 km/h 24.1 km/h 77 % 0 mm 0 W/m2
20:05 11 °C 7.1 °C 1010.7 hPa WNW 12.9 km/h 29 km/h 77 % 0 mm 0 W/m2
20:10 10.9 °C 7.2 °C 1010.7 hPa WNW 16.1 km/h 29 km/h 78 % 0 mm 0 W/m2
20:15 10.7 °C 7.2 °C 1010.7 hPa WNW 16.1 km/h 29 km/h 79 % 0 mm 0 W/m2
20:20 10.6 °C 7.1 °C 1010.7 hPa WNW 14.5 km/h 29 km/h 79 % 0 mm 0 W/m2
20:25 10.4 °C 7.1 °C 1011.1 hPa WNW 12.9 km/h 22.5 km/h 80 % 0 mm 0 W/m2
20:30 10.3 °C 7 °C 1011.1 hPa WNW 12.9 km/h 22.5 km/h 80 % 0 mm 0 W/m2
20:35 10.2 °C 6.9 °C 1011.1 hPa WNW 12.9 km/h 19.3 km/h 80 % 0 mm 0 W/m2
20:40 10.1 °C 7 °C 1011.4 hPa WNW 11.3 km/h 19.3 km/h 81 % 0 mm 0 W/m2
20:45 9.9 °C 6.8 °C 1011.4 hPa WNW 11.3 km/h 20.9 km/h 81 % 0 mm 0 W/m2
20:50 9.8 °C 6.9 °C 1011.4 hPa WNW 12.9 km/h 20.9 km/h 82 % 0 mm 0 W/m2
20:56 9.7 °C 6.8 °C 1011.7 hPa WNW 11.3 km/h 20.9 km/h 82 % 0 mm 0 W/m2
21:00 9.7 °C 6.8 °C 1011.7 hPa WNW 11.3 km/h 17.7 km/h 82 % 0 mm 0 W/m2
21:06 9.6 °C 6.8 °C 1011.7 hPa WNW 11.3 km/h 17.7 km/h 83 % 0 mm 0 W/m2
21:11 9.5 °C 6.8 °C 1011.7 hPa WNW 11.3 km/h 17.7 km/h 83 % 0 mm 0 W/m2
21:16 9.4 °C 6.7 °C 1012.1 hPa WNW 9.7 km/h 17.7 km/h 83 % 0 mm 0 W/m2
21:21 9.3 °C 6.7 °C 1012.1 hPa WNW 11.3 km/h 24.1 km/h 84 % 0 mm 0 W/m2
21:26 9.2 °C 6.4 °C 1012.1 hPa WNW 12.9 km/h 24.1 km/h 83 % 0 mm 0 W/m2
21:31 9.1 °C 6.4 °C 1012.1 hPa WNW 11.3 km/h 19.3 km/h 83 % 0 mm 0 W/m2
21:36 9.1 °C 6.4 °C 1012.1 hPa WNW 11.3 km/h 29 km/h 83 % 0 mm 0 W/m2
21:41 9 °C 6.4 °C 1012.4 hPa WNW 11.3 km/h 29 km/h 84 % 0 mm 0 W/m2
21:42 9 °C 6.4 °C 1012.4 hPa WNW 11.3 km/h 29 km/h 84 % 0 mm 0 W/m2
21:47 8.9 °C 6.3 °C 1012.4 hPa WNW 9.7 km/h 17.7 km/h 84 % 0 mm 0 W/m2
21:53 8.9 °C 6.3 °C 1012.4 hPa WNW 8 km/h 14.5 km/h 84 % 0 mm 0 W/m2
21:58 8.8 °C 6.4 °C 1012.4 hPa WNW 8 km/h 16.1 km/h 85 % 0 mm 0 W/m2
22:03 8.8 °C 6.4 °C 1012.4 hPa WNW 9.7 km/h 17.7 km/h 85 % 0 mm 0 W/m2
22:08 8.8 °C 6.4 °C 1012.4 hPa WNW 9.7 km/h 20.9 km/h 85 % 0 mm 0 W/m2
22:13 8.7 °C 6.3 °C 1012.4 hPa WNW 9.7 km/h 20.9 km/h 85 % 0 mm 0 W/m2
22:18 8.7 °C 6.3 °C 1012.8 hPa WNW 9.7 km/h 19.3 km/h 85 % 0 mm 0 W/m2
22:23 8.7 °C 6.5 °C 1012.8 hPa WNW 9.7 km/h 19.3 km/h 86 % 0 mm 0 W/m2
22:28 8.7 °C 6.5 °C 1012.8 hPa WNW 11.3 km/h 22.5 km/h 86 % 0 mm 0 W/m2
22:33 8.7 °C 6.5 °C 1012.8 hPa WNW 12.9 km/h 22.5 km/h 86 % 0 mm 0 W/m2
22:38 8.7 °C 6.7 °C 1012.8 hPa WNW 11.3 km/h 19.3 km/h 87 % 0 mm 0 W/m2
22:43 8.8 °C 6.8 °C 1013.1 hPa WNW 12.9 km/h 19.3 km/h 87 % 0 mm 0 W/m2
22:48 8.8 °C 6.8 °C 1013.1 hPa WNW 12.9 km/h 20.9 km/h 87 % 0 mm 0 W/m2
22:53 8.8 °C 6.8 °C 1013.1 hPa WNW 11.3 km/h 20.9 km/h 87 % 0 mm 0 W/m2
22:58 8.9 °C 6.7 °C 1013.1 hPa WNW 12.9 km/h 19.3 km/h 86 % 0 mm 0 W/m2
23:03 8.8 °C 6.6 °C 1013.1 hPa WNW 12.9 km/h 17.7 km/h 86 % 0 mm 0 W/m2
23:08 8.8 °C 6.6 °C 1013.1 hPa WNW 11.3 km/h 17.7 km/h 86 % 0 mm 0 W/m2
23:13 8.8 °C 6.8 °C 1013.1 hPa WNW 11.3 km/h 20.9 km/h 87 % 0 mm 0 W/m2
23:18 8.8 °C 6.8 °C 1013.1 hPa WNW 11.3 km/h 20.9 km/h 87 % 0 mm 0 W/m2
23:23 8.7 °C 6.7 °C 1013.4 hPa WNW 9.7 km/h 17.7 km/h 87 % 0 mm 0 W/m2
23:28 8.7 °C 6.7 °C 1013.4 hPa WNW 9.7 km/h 16.1 km/h 87 % 0 mm 0 W/m2
23:33 8.7 °C 6.7 °C 1013.4 hPa WNW 9.7 km/h 17.7 km/h 87 % 0 mm 0 W/m2
23:38 8.6 °C 6.7 °C 1013.4 hPa WNW 9.7 km/h 17.7 km/h 88 % 0 mm 0 W/m2
23:43 8.6 °C 6.7 °C 1013.4 hPa WNW 9.7 km/h 20.9 km/h 88 % 0 mm 0 W/m2
23:48 8.6 °C 6.7 °C 1013.8 hPa WNW 11.3 km/h 20.9 km/h 88 % 0 mm 0 W/m2
23:53 8.6 °C 6.7 °C 1013.8 hPa WNW 11.3 km/h 19.3 km/h 88 % 0 mm 0 W/m2
23:58 8.5 °C 6.6 °C 1013.8 hPa WNW 9.7 km/h 17.7 km/h 88 % 0 mm 0 W/m2
Delerius-Weather
Compliments of Weather Underground - 2.25 mb

Data updates at regular intervals.